KBFF/BFF METAR and TAF weather

Enter ICAO airport designator
Station Type Date Time Source
KBFF METAR 2018/01/23 00:53 UTC NOAA

KBFF 230053Z AUTO 29012KT 10SM CLR M03/M08 A3005 RMK AO2 SLP218 T10331083


Station Type Date Time Source
KBFF Decoded METAR 2018/01/23 00:53 UTC NOAA

SCOTTSBLUFF HEILIG FIELD, NE, United States (KBFF) 41-52N 103-36W 1203M
Jan 22, 2018 - 07:53 PM EST / 2018.01.23 0053 UTC
Wind: from the WNW (290 degrees) at 14 MPH (12 KT):0
Visibility: 10 mile(s):0
Sky conditions: clear
Temperature: 26.1 F (-3.3 C)
Windchill: 14 F (-10 C):1
Dew Point: 17.1 F (-8.3 C)
Relative Humidity: 68%
Pressure (altimeter): 30.05 in. Hg (1017 hPa)
ob: KBFF 230053Z AUTO 29012KT 10SM CLR M03/M08 A3005 RMK AO2 SLP218 T10331083
cycle: 1

Station Type Date Time Source
KBFF TAF 2018/01/22 18:45 UTC NOAA

TAF KBFF 221742Z 2218/2318 30010KT P6SM SKC


Example: see airport list